Terminal Aerodrome Forecast
Issued by NWS Charleston, WV

Current Version | Previous Version | Graphics & Text | Print | Product List | Glossary On
Versions: 1 2 3 4 5 6 7 8 9 10 11 12 13 14 15 16 17 18 19 20 21 22 23 24 25 26 27 28 29 30 31 32
000
FTUS41 KRLX 260500
TAFBKW
TAF
KBKW 260538Z 2606/2706 00000KT 3SM SHRA BR BKN004 OVC008
     FM260900 VRB03KT 5SM BR OVC003
     FM261500 VRB03KT P6SM OVC008
     FM261700 34005KT P6SM BKN015
     FM262200 33008KT P6SM BKN035
     FM270100 33007KT P6SM SCT045=

USA.gov is the U.S. government's official web portal to all federal, state and local government web resources and services.